createdAt,value
2022-08-16T11:32:28.384Z,4.20
2022-08-16T11:38:51.838Z,5.07
2022-08-16T11:41:45.069Z,4.30
2022-08-16T11:44:56.054Z,4.45
2022-08-16T11:47:48.049Z,4.63
2022-08-16T11:50:38.070Z,4.55
2022-08-16T11:53:29.934Z,4.00
2022-08-16T11:56:39.733Z,4.18
2022-08-16T11:59:39.797Z,4.80
2022-08-16T12:05:26.088Z,4.10
2022-08-16T12:08:21.949Z,4.65
2022-08-16T12:11:17.162Z,4.57
2022-08-16T12:14:10.141Z,3.65
2022-08-16T12:17:04.948Z,4.25
2022-08-16T12:19:56.047Z,4.10
2022-08-16T12:22:47.532Z,4.10
2022-08-16T12:25:39.183Z,4.25
2022-08-16T12:28:36.943Z,4.43
2022-08-16T12:32:00.685Z,4.00
2022-08-16T12:34:53.179Z,4.20
2022-08-16T12:40:41.897Z,3.97
2022-08-16T12:43:33.037Z,3.90
2022-08-16T12:46:23.162Z,3.97
2022-08-16T12:49:13.503Z,4.00
2022-08-16T12:52:04.159Z,4.10
2022-08-16T12:54:57.692Z,4.22
2022-08-16T12:57:58.220Z,3.85
2022-08-16T13:00:49.215Z,3.45
2022-08-16T13:03:40.968Z,3.58
2022-08-16T13:06:33.573Z,3.30
2022-08-16T13:09:26.755Z,3.83
2022-08-16T13:12:23.203Z,4.18
2022-08-16T13:15:18.007Z,4.00
2022-08-16T13:21:14.244Z,3.50
2022-08-16T13:24:05.717Z,3.78
2022-08-16T13:26:56.188Z,3.97
2022-08-16T13:29:46.384Z,3.85
2022-08-16T13:32:48.732Z,3.40
2022-08-16T13:35:44.305Z,3.70
2022-08-16T13:41:30.187Z,4.05
2022-08-16T13:44:20.980Z,3.65
2022-08-16T13:47:11.424Z,3.88
2022-08-16T13:50:03.350Z,3.60
2022-08-16T13:52:53.412Z,3.20
2022-08-16T13:55:44.889Z,3.75
2022-08-16T13:58:54.393Z,3.33
2022-08-16T14:01:47.006Z,3.22
2022-08-16T14:04:46.186Z,3.25
2022-08-16T14:07:53.126Z,3.53
2022-08-16T14:10:43.530Z,3.63
2022-08-16T14:13:34.840Z,3.50
2022-08-16T14:16:33.503Z,3.33
2022-08-16T14:19:24.435Z,3.88
2022-08-16T14:22:31.415Z,3.10
2022-08-16T14:25:27.199Z,3.58
2022-08-16T14:28:20.122Z,3.17
2022-08-16T14:31:13.813Z,3.17
2022-08-16T14:34:05.981Z,3.45
2022-08-16T14:37:05.197Z,3.50
2022-08-16T14:39:56.187Z,3.55
2022-08-16T14:42:47.828Z,3.33
2022-08-16T14:45:38.707Z,3.63
2022-08-16T14:48:30.209Z,3.22
2022-08-16T14:51:20.789Z,3.05
2022-08-16T14:54:14.992Z,3.40
2022-08-16T14:57:06.048Z,3.60
2022-08-16T14:59:56.404Z,3.30
2022-08-16T15:02:54.196Z,3.15
2022-08-16T15:05:44.307Z,3.40
2022-08-16T15:08:36.920Z,3.45
2022-08-16T15:11:27.574Z,3.63
2022-08-16T15:14:19.881Z,3.20
2022-08-16T15:17:10.009Z,3.20
2022-08-16T15:20:01.907Z,3.47
2022-08-16T15:22:52.286Z,3.40
2022-08-16T15:25:47.310Z,3.10
2022-08-16T15:28:53.983Z,3.25
2022-08-16T15:31:46.089Z,3.47
2022-08-16T15:34:44.648Z,3.53
2022-08-16T15:37:42.597Z,3.28
2022-08-16T15:40:35.801Z,3.78
2022-08-16T15:43:33.958Z,3.30
2022-08-16T15:46:35.346Z,3.35
2022-08-16T15:49:46.659Z,3.35
2022-08-16T15:52:38.086Z,3.40
2022-08-16T15:55:35.245Z,3.47
2022-08-16T15:58:35.626Z,3.35
2022-08-16T16:01:29.309Z,3.70
2022-08-16T16:04:25.801Z,3.35
2022-08-16T16:07:16.180Z,3.10
2022-08-16T16:10:13.446Z,3.08
2022-08-16T16:13:08.781Z,3.30
2022-08-16T16:16:02.846Z,3.47
2022-08-16T16:18:53.434Z,3.45
2022-08-16T16:21:44.850Z,4.07
2022-08-16T16:24:36.125Z,3.85
2022-08-16T16:27:26.409Z,3.90
2022-08-16T16:30:38.141Z,2.92
2022-08-16T16:33:29.899Z,3.08
2022-08-16T16:36:23.104Z,3.17
2022-08-16T16:39:15.552Z,3.58
2022-08-16T16:42:06.109Z,3.70
2022-08-16T16:45:03.870Z,3.53
2022-08-16T16:47:54.351Z,3.40
2022-08-16T16:50:45.703Z,3.35
2022-08-16T16:53:37.956Z,3.20
2022-08-16T16:56:35.632Z,3.10
2022-08-16T16:59:28.298Z,3.47
2022-08-16T17:02:41.368Z,3.42
2022-08-16T17:05:32.620Z,3.45
2022-08-16T17:08:23.975Z,3.40
2022-08-16T17:11:15.418Z,3.00
2022-08-16T17:14:06.764Z,3.40
2022-08-16T17:17:11.566Z,3.40
2022-08-16T17:20:04.899Z,3.70
2022-08-16T17:23:04.870Z,3.38
2022-08-16T17:25:55.419Z,3.75
2022-08-16T17:28:58.482Z,3.50
2022-08-16T17:31:50.396Z,3.90
2022-08-16T17:34:45.484Z,3.75
2022-08-16T17:37:51.790Z,3.25
2022-08-16T17:40:58.303Z,3.53
2022-08-16T17:43:48.668Z,3.80
2022-08-16T17:46:50.069Z,3.38
2022-08-16T17:49:42.396Z,3.17
2022-08-16T17:52:34.865Z,3.70
2022-08-16T17:55:43.236Z,3.50
2022-08-16T17:58:33.561Z,3.42
2022-08-16T18:01:26.475Z,3.30
2022-08-16T18:04:48.682Z,3.40
2022-08-16T18:07:27.549Z,3.13
2022-08-16T18:10:30.404Z,3.47
2022-08-16T18:13:24.014Z,3.63
2022-08-16T18:16:16.660Z,3.00
2022-08-16T18:19:06.862Z,3.58
2022-08-16T18:22:15.672Z,3.20
2022-08-16T18:25:06.393Z,3.50
2022-08-16T18:27:57.109Z,3.75
2022-08-16T18:30:51.870Z,3.55
2022-08-16T18:33:44.080Z,3.75
2022-08-16T18:36:34.694Z,3.70
2022-08-16T18:39:25.229Z,3.95
2022-08-16T18:42:15.447Z,3.78
2022-08-16T18:45:06.504Z,3.50
2022-08-16T18:47:56.934Z,3.20
2022-08-16T18:50:58.870Z,3.78
2022-08-16T18:53:55.323Z,4.05
2022-08-16T18:56:56.389Z,3.40
2022-08-16T18:59:47.924Z,4.03
2022-08-16T19:02:58.387Z,3.85
2022-08-16T19:05:54.814Z,4.03
2022-08-16T19:08:45.616Z,3.85
2022-08-16T19:11:36.028Z,3.85
2022-08-16T19:14:29.986Z,3.90
2022-08-16T19:20:13.455Z,4.07
2022-08-16T19:23:05.934Z,3.80
2022-08-16T19:26:00.580Z,4.15
2022-08-16T19:28:58.617Z,3.92
2022-08-16T19:31:50.730Z,3.78
2022-08-16T19:34:40.885Z,3.90
2022-08-16T19:37:31.273Z,3.90
2022-08-16T19:40:37.522Z,4.20
2022-08-16T19:43:28.739Z,4.80
2022-08-16T19:46:19.031Z,4.30
2022-08-16T19:49:09.470Z,4.22
2022-08-16T19:52:10.884Z,4.13
2022-08-16T19:55:06.403Z,4.50
2022-08-16T19:57:57.776Z,4.53
2022-08-16T20:00:51.059Z,4.60
2022-08-16T20:03:44.721Z,4.60
2022-08-16T20:06:38.894Z,4.57
2022-08-16T20:09:30.073Z,4.45
2022-08-16T20:12:25.087Z,4.35
2022-08-16T20:15:16.996Z,4.30
2022-08-16T20:18:21.332Z,4.38
2022-08-16T20:21:15.274Z,4.68
2022-08-16T20:24:32.882Z,5.20
2022-08-16T20:27:15.975Z,4.97
2022-08-16T20:30:08.474Z,4.65
2022-08-16T20:32:58.946Z,4.28
2022-08-16T20:35:49.662Z,4.82
2022-08-16T20:38:42.628Z,4.75
2022-08-16T20:41:32.752Z,4.75
2022-08-16T20:44:25.047Z,4.53
2022-08-16T20:47:15.392Z,4.60
2022-08-16T20:50:06.340Z,4.68
2022-08-16T20:52:56.915Z,4.60
2022-08-16T20:55:47.100Z,4.68
2022-08-16T20:58:37.977Z,5.43
2022-08-16T21:01:45.964Z,4.45
2022-08-16T21:04:38.246Z,4.93
2022-08-16T21:07:28.644Z,5.35
2022-08-16T21:10:21.250Z,5.35
2022-08-16T21:13:12.201Z,6.10
2022-08-16T21:16:03.167Z,5.00
2022-08-16T21:18:53.381Z,4.75
2022-08-16T21:21:44.022Z,4.32
2022-08-16T21:24:34.378Z,4.55
2022-08-16T21:27:24.808Z,4.70
2022-08-16T21:30:18.053Z,4.57
2022-08-16T21:33:18.826Z,4.32
2022-08-16T21:36:09.633Z,5.22
2022-08-16T21:38:59.863Z,4.70
2022-08-16T21:41:50.045Z,5.10
2022-08-16T21:44:41.122Z,5.05
2022-08-16T21:47:31.774Z,5.63
2022-08-16T21:50:22.080Z,4.88
2022-08-16T21:53:19.142Z,5.30
2022-08-16T21:56:16.729Z,4.90
2022-08-16T21:59:10.906Z,5.13
2022-08-16T22:02:00.943Z,4.93
2022-08-16T22:04:51.642Z,5.40
2022-08-16T22:07:42.191Z,5.32
2022-08-16T22:11:06.162Z,5.15
2022-08-16T22:13:57.592Z,5.65
2022-08-16T22:16:48.594Z,5.30
2022-08-16T22:19:38.642Z,5.40
2022-08-16T22:22:35.163Z,5.30
2022-08-16T22:25:26.463Z,5.32
2022-08-16T22:28:18.155Z,5.53
2022-08-16T22:31:08.282Z,5.53
2022-08-16T22:33:58.655Z,5.60
2022-08-16T22:36:51.308Z,5.88
2022-08-16T22:39:41.788Z,5.30
2022-08-16T22:42:31.951Z,5.63
2022-08-16T22:45:23.845Z,5.28
2022-08-16T22:48:15.285Z,5.50
2022-08-16T22:51:05.541Z,5.60
2022-08-16T22:53:56.963Z,5.43
2022-08-16T22:56:46.870Z,6.10
2022-08-16T22:59:37.073Z,6.68
2022-08-16T23:02:27.193Z,6.53
2022-08-16T23:05:17.763Z,5.95
2022-08-16T23:08:10.570Z,5.57
2022-08-16T23:11:02.272Z,6.18
2022-08-16T23:13:54.805Z,5.88
2022-08-16T23:16:47.068Z,5.65
2022-08-16T23:19:37.698Z,6.35
2022-08-16T23:22:27.921Z,6.25
2022-08-16T23:25:29.889Z,6.70
2022-08-16T23:28:22.162Z,7.05
2022-08-16T23:31:13.271Z,6.65
2022-08-16T23:34:03.570Z,7.20
2022-08-16T23:36:54.275Z,6.85
2022-08-16T23:39:45.433Z,7.00
2022-08-16T23:42:52.895Z,6.85
2022-08-16T23:45:45.789Z,6.63
2022-08-16T23:49:58.239Z,6.57
2022-08-16T23:51:48.157Z,7.13
2022-08-16T23:54:38.378Z,6.80
2022-08-16T23:57:28.156Z,7.20
